Time;durP1;ratioP1;P1;durP2;ratioP2;P2;SDS_P1;SDS_P2;PMS_P1;PMS_P2;Temp;Humidity;BMP_temperature;BMP_pressure;BME280_temperature;BME280_humidity;BME280_pressure;Samples;Min_cycle;Max_cycle;Signal;HPM_P1;HPM_P2
2021/07/31 00:01:08;;;;;;;9.02;3.00;;;14.70;99.90;;;;;;5051948;28;20052;-75
2021/07/31 00:03:38;;;;;;;10.88;2.78;;;14.80;99.90;;;;;;5056995;28;20064;-75
2021/07/31 00:06:05;;;;;;;6.50;2.75;;;14.90;99.90;;;;;;5056943;28;20041;-76
2021/07/31 00:08:31;;;;;;;5.93;2.78;;;15.00;99.90;;;;;;5060539;28;20123;-76
2021/07/31 00:10:57;;;;;;;6.50;3.55;;;15.00;99.90;;;;;;5052713;28;20040;-75
2021/07/31 00:13:24;;;;;;;6.85;2.70;;;14.90;99.90;;;;;;5052762;28;20048;-76
2021/07/31 00:15:49;;;;;;;8.10;2.50;;;15.00;99.90;;;;;;5058849;28;20083;-77
2021/07/31 00:18:15;;;;;;;7.22;2.60;;;14.90;99.90;;;;;;5053137;28;20046;-76
2021/07/31 00:20:41;;;;;;;12.30;3.10;;;14.90;99.90;;;;;;5062038;28;20041;-76
2021/07/31 00:23:09;;;;;;;5.07;2.70;;;14.90;99.90;;;;;;5055777;28;20046;-75
2021/07/31 00:25:35;;;;;;;7.30;2.50;;;14.90;99.90;;;;;;5060359;28;20040;-75
2021/07/31 00:28:01;;;;;;;11.20;3.72;;;14.90;99.90;;;;;;5056716;28;20045;-76
2021/07/31 00:30:28;;;;;;;12.27;3.60;;;15.00;99.90;;;;;;5057564;28;20052;-76
2021/07/31 00:32:55;;;;;;;10.03;3.00;;;15.00;99.90;;;;;;5058161;28;20053;-76
2021/07/31 00:35:21;;;;;;;7.05;2.92;;;15.00;99.90;;;;;;5054822;28;20099;-76
2021/07/31 00:37:47;;;;;;;14.80;5.40;;;15.00;99.90;;;;;;5066627;28;20076;-76
2021/07/31 00:40:13;;;;;;;7.80;3.30;;;14.90;99.90;;;;;;5059159;28;20109;-76
2021/07/31 00:42:43;;;;;;;8.27;3.50;;;14.80;99.90;;;;;;5064740;28;20045;-77
2021/07/31 00:45:10;;;;;;;8.50;3.55;;;14.90;99.90;;;;;;5059987;28;20045;-75
2021/07/31 00:47:36;;;;;;;15.55;3.97;;;14.80;99.90;;;;;;5055698;28;20041;-76
2021/07/31 00:50:03;;;;;;;6.25;3.17;;;14.90;99.90;;;;;;5060939;28;20056;-76
2021/07/31 00:52:29;;;;;;;7.97;2.87;;;14.90;99.90;;;;;;5060045;28;20101;-76
2021/07/31 00:54:58;;;;;;;9.05;3.80;;;14.90;99.90;;;;;;5061838;28;20399;-75
2021/07/31 00:57:24;;;;;;;7.88;3.80;;;14.80;99.90;;;;;;5057399;28;20399;-76
2021/07/31 00:59:50;;;;;;;8.02;4.03;;;14.80;99.90;;;;;;5062723;28;20050;-76
2021/07/31 01:02:16;;;;;;;10.95;3.95;;;14.80;99.90;;;;;;5055888;28;20033;-76
2021/07/31 01:04:42;;;;;;;10.52;4.00;;;14.80;99.90;;;;;;5063025;28;20060;-75
2021/07/31 01:07:08;;;;;;;10.35;3.45;;;14.80;99.90;;;;;;5054777;28;20041;-76
2021/07/31 01:09:34;;;;;;;10.20;4.03;;;14.80;99.90;;;;;;5061691;28;20479;-75
2021/07/31 01:12:01;;;;;;;12.05;3.95;;;14.80;99.90;;;;;;5054392;28;20053;-76
2021/07/31 01:14:27;;;;;;;11.48;4.35;;;14.80;99.90;;;;;;5060243;28;20049;-75
2021/07/31 01:16:55;;;;;;;7.70;3.67;;;14.80;99.90;;;;;;5052943;28;20048;-77
2021/07/31 01:19:21;;;;;;;10.35;4.00;;;14.90;99.90;;;;;;5058279;28;20093;-76
2021/07/31 01:21:47;;;;;;;8.43;3.95;;;14.90;99.90;;;;;;5064615;28;20048;-76
2021/07/31 01:24:15;;;;;;;16.10;4.55;;;14.90;99.90;;;;;;5057811;28;20043;-76
2021/07/31 01:26:43;;;;;;;10.50;3.90;;;14.80;99.90;;;;;;5064253;28;20053;-77
2021/07/31 01:29:10;;;;;;;15.07;4.95;;;14.90;99.90;;;;;;5056434;28;20045;-76
2021/07/31 01:31:37;;;;;;;10.65;4.68;;;14.80;99.90;;;;;;5063221;28;20068;-77
2021/07/31 01:34:03;;;;;;;10.32;4.25;;;14.70;99.90;;;;;;5056583;28;20112;-76
2021/07/31 01:36:29;;;;;;;11.82;4.75;;;14.70;99.90;;;;;;5077974;28;20102;-76
2021/07/31 01:38:56;;;;;;;16.13;4.88;;;14.70;99.90;;;;;;5055335;28;20076;-76
2021/07/31 01:41:23;;;;;;;12.47;4.53;;;14.60;99.90;;;;;;5062312;28;20508;-76
2021/07/31 01:43:49;;;;;;;18.17;5.03;;;14.70;99.90;;;;;;5055133;28;20080;-76
2021/07/31 01:46:15;;;;;;;10.10;4.80;;;14.60;99.90;;;;;;5061149;28;20314;-76
2021/07/31 01:48:41;;;;;;;12.93;4.68;;;14.60;99.90;;;;;;5054155;28;20042;-76
2021/07/31 01:51:07;;;;;;;12.57;6.20;;;14.60;99.90;;;;;;5060198;28;20040;-76
2021/07/31 01:53:33;;;;;;;16.05;5.50;;;14.70;99.90;;;;;;5053177;28;20049;-76
2021/07/31 01:55:59;;;;;;;14.07;6.78;;;14.80;99.90;;;;;;5051799;28;20044;-76
2021/07/31 01:58:24;;;;;;;13.45;5.50;;;14.80;99.90;;;;;;5054611;28;20057;-76
2021/07/31 02:00:53;;;;;;;13.05;5.50;;;14.70;99.90;;;;;;5056726;28;20110;-76
2021/07/31 02:03:20;;;;;;;13.40;5.45;;;14.80;99.90;;;;;;5055580;28;20149;-77
2021/07/31 02:05:46;;;;;;;14.45;5.65;;;14.80;99.90;;;;;;5054116;28;20052;-76
2021/07/31 02:08:12;;;;;;;17.58;6.07;;;14.80;99.90;;;;;;5064863;28;20049;-77
2021/07/31 02:10:37;;;;;;;13.18;5.47;;;14.80;99.90;;;;;;5057075;28;20041;-76
2021/07/31 02:13:03;;;;;;;10.57;5.10;;;14.80;99.90;;;;;;5059993;28;20091;-77
2021/07/31 02:15:29;;;;;;;13.68;5.70;;;14.70;99.90;;;;;;5057665;28;20065;-76
2021/07/31 02:17:56;;;;;;;14.73;6.00;;;14.70;99.90;;;;;;5053878;28;20041;-76
2021/07/31 02:20:22;;;;;;;14.35;5.80;;;14.70;99.90;;;;;;5063996;28;20045;-76
2021/07/31 02:22:48;;;;;;;14.40;5.93;;;14.70;99.90;;;;;;5059403;28;20049;-76
2021/07/31 02:25:14;;;;;;;15.10;5.88;;;14.80;99.90;;;;;;5058948;28;20064;-76
2021/07/31 02:27:40;;;;;;;15.18;6.85;;;14.80;99.90;;;;;;5051604;28;20037;-76
2021/07/31 02:30:06;;;;;;;13.93;5.90;;;14.90;99.90;;;;;;5060810;28;20444;-76
2021/07/31 02:32:32;;;;;;;18.70;6.15;;;14.90;99.90;;;;;;5061388;28;20513;-76
2021/07/31 02:34:58;;;;;;;13.88;6.38;;;14.90;99.90;;;;;;5058314;28;20056;-76
2021/07/31 02:37:23;;;;;;;13.77;6.68;;;15.00;99.90;;;;;;5062388;28;20554;-76
2021/07/31 02:39:49;;;;;;;15.77;6.63;;;15.00;99.90;;;;;;5056620;28;20048;-76
2021/07/31 02:42:16;;;;;;;14.73;6.57;;;14.90;99.90;;;;;;5062910;28;20056;-76
2021/07/31 02:44:42;;;;;;;14.57;6.90;;;14.90;99.90;;;;;;5055741;28;20048;-76
2021/07/31 02:47:08;;;;;;;11.20;6.65;;;14.80;99.90;;;;;;5077447;28;20051;-76
2021/07/31 02:49:34;;;;;;;14.07;6.55;;;14.90;99.90;;;;;;5054211;28;20059;-76
2021/07/31 02:51:59;;;;;;;16.42;6.38;;;14.90;99.90;;;;;;5060093;28;20049;-78
2021/07/31 02:54:25;;;;;;;19.33;7.72;;;15.00;99.90;;;;;;5053328;28;20048;-76
2021/07/31 02:56:51;;;;;;;17.73;7.43;;;15.00;99.90;;;;;;5059731;28;20048;-76
2021/07/31 02:59:16;;;;;;;14.70;6.28;;;15.00;99.90;;;;;;5052796;28;20123;-76
2021/07/31 03:01:42;;;;;;;14.88;5.28;;;15.00;99.90;;;;;;5059061;28;20499;-77
2021/07/31 03:04:08;;;;;;;15.43;7.10;;;15.00;99.90;;;;;;5051794;28;20041;-76
2021/07/31 03:06:34;;;;;;;15.40;7.55;;;14.90;99.90;;;;;;5057768;28;20041;-75
2021/07/31 03:08:59;;;;;;;11.55;6.95;;;14.90;99.90;;;;;;5051012;28;20080;-76
2021/07/31 03:11:25;;;;;;;18.38;7.88;;;15.00;99.90;;;;;;5057536;28;20044;-77
2021/07/31 03:13:51;;;;;;;13.23;6.07;;;15.00;99.90;;;;;;5060594;28;20048;-77
2021/07/31 03:16:17;;;;;;;18.90;7.55;;;14.90;99.90;;;;;;5052623;28;20053;-75
2021/07/31 03:18:42;;;;;;;15.18;7.68;;;14.90;99.90;;;;;;5059612;28;20088;-75
2021/07/31 03:21:11;;;;;;;16.55;8.38;;;14.90;99.90;;;;;;5062701;28;20049;-76
2021/07/31 03:23:37;;;;;;;16.48;7.60;;;14.80;99.90;;;;;;5059150;28;20048;-75
2021/07/31 03:26:03;;;;;;;15.88;8.35;;;14.80;99.90;;;;;;5053767;28;20064;-76
2021/07/31 03:28:30;;;;;;;13.80;9.05;;;14.70;99.90;;;;;;5055975;28;20124;-75
2021/07/31 03:30:57;;;;;;;22.95;9.60;;;14.70;99.90;;;;;;5054807;28;20132;-76
2021/07/31 03:33:23;;;;;;;20.10;8.73;;;14.70;99.90;;;;;;5053498;28;20050;-75
2021/07/31 03:35:52;;;;;;;14.52;8.27;;;14.70;99.90;;;;;;5062419;28;20045;-76
2021/07/31 03:38:18;;;;;;;21.38;11.38;;;14.70;99.90;;;;;;5056746;28;20065;-74
2021/07/31 03:40:44;;;;;;;14.68;8.70;;;14.70;99.90;;;;;;5057527;28;20045;-74
2021/07/31 03:43:12;;;;;;;19.95;9.80;;;14.70;99.90;;;;;;5050386;28;20412;-75
2021/07/31 03:45:39;;;;;;;20.27;9.52;;;14.60;99.90;;;;;;5061285;28;20119;-75
2021/07/31 03:48:05;;;;;;;24.02;9.90;;;14.70;99.90;;;;;;5058741;28;20052;-75
2021/07/31 03:50:31;;;;;;;20.33;10.50;;;14.70;99.90;;;;;;5058549;28;20098;-74
2021/07/31 03:52:57;;;;;;;22.45;9.60;;;14.70;99.90;;;;;;5059023;28;20167;-74
2021/07/31 03:55:23;;;;;;;18.70;8.73;;;14.70;99.90;;;;;;5056134;28;20045;-74
2021/07/31 03:58:00;;;;;;;24.23;11.27;;;14.70;99.90;;;;;;5059482;28;20046;-73
2021/07/31 04:00:27;;;;;;;19.08;10.32;;;14.60;99.90;;;;;;5054794;28;20060;-73
2021/07/31 04:02:52;;;;;;;26.50;10.18;;;14.60;99.90;;;;;;5060555;28;20037;-74
2021/07/31 04:05:18;;;;;;;22.52;11.27;;;14.60;99.90;;;;;;5053057;28;21200;-74
2021/07/31 04:07:47;;;;;;;15.77;8.85;;;14.70;99.90;;;;;;5060250;28;20112;-73
2021/07/31 04:10:13;;;;;;;18.67;9.80;;;14.70;99.90;;;;;;5052808;28;20052;-74
2021/07/31 04:12:39;;;;;;;20.40;10.38;;;14.60;99.90;;;;;;5059620;28;20041;-75
2021/07/31 04:15:05;;;;;;;13.95;8.30;;;14.60;99.90;;;;;;5062486;28;20060;-75
2021/07/31 04:17:34;;;;;;;14.52;7.50;;;14.70;99.90;;;;;;5055014;28;20090;-75
2021/07/31 04:19:59;;;;;;;22.23;8.38;;;14.70;99.90;;;;;;5060153;28;20470;-75
2021/07/31 04:22:25;;;;;;;18.33;8.45;;;14.80;99.90;;;;;;5063312;28;20103;-75
2021/07/31 04:24:52;;;;;;;16.92;8.10;;;14.70;99.90;;;;;;5059921;28;20041;-75
2021/07/31 04:27:19;;;;;;;18.45;9.48;;;14.80;99.90;;;;;;5051999;28;20262;-74
2021/07/31 04:29:44;;;;;;;19.95;8.45;;;14.70;99.90;;;;;;5059590;28;20040;-75
2021/07/31 04:32:10;;;;;;;16.23;7.88;;;14.70;99.90;;;;;;5048875;28;20055;-75
2021/07/31 04:34:36;;;;;;;20.95;8.40;;;14.70;99.90;;;;;;5058576;28;20049;-74
2021/07/31 04:37:04;;;;;;;19.05;7.95;;;14.70;99.90;;;;;;5050572;28;20492;-74
2021/07/31 04:39:31;;;;;;;;;;;14.70;99.90;;;;;;5058118;28;20041;-73
2021/07/31 04:41:57;;;;;;;18.98;7.70;;;14.70;99.90;;;;;;5050796;28;19921;-75
2021/07/31 04:44:22;;;;;;;20.48;8.93;;;14.70;99.90;;;;;;5057515;28;20072;-76
2021/07/31 04:46:49;;;;;;;22.20;8.50;;;14.70;99.90;;;;;;5049552;28;20045;-75
2021/07/31 04:49:16;;;;;;;22.58;7.82;;;14.80;99.90;;;;;;5056428;28;20447;-76
2021/07/31 04:51:43;;;;;;;29.57;7.93;;;14.80;99.90;;;;;;5049975;28;20105;-75
2021/07/31 04:54:09;;;;;;;21.42;7.72;;;14.80;99.90;;;;;;5054583;28;20048;-76
2021/07/31 04:56:35;;;;;;;27.90;8.48;;;14.80;99.90;;;;;;5060657;28;20472;-76
2021/07/31 04:59:00;;;;;;;25.27;7.53;;;14.80;99.90;;;;;;5054777;28;20037;-75
2021/07/31 05:01:26;;;;;;;23.25;6.53;;;14.80;99.90;;;;;;5059968;28;20092;-76
2021/07/31 05:03:52;;;;;;;16.55;6.57;;;14.90;99.90;;;;;;5053984;28;20095;-75
2021/07/31 05:06:18;;;;;;;27.08;6.68;;;14.90;99.90;;;;;;5063195;28;20037;-75
2021/07/31 05:08:43;;;;;;;25.45;8.05;;;15.00;99.90;;;;;;5057784;28;20075;-75
2021/07/31 05:11:09;;;;;;;27.17;8.25;;;15.00;99.90;;;;;;5061930;28;20051;-73
2021/07/31 05:13:36;;;;;;;25.38;7.43;;;15.00;99.90;;;;;;5059417;28;20124;-73
2021/07/31 05:16:02;;;;;;;31.23;7.10;;;15.00;99.90;;;;;;5051830;28;20041;-73
2021/07/31 05:18:28;;;;;;;22.33;7.40;;;15.00;99.90;;;;;;5064679;28;20071;-75
2021/07/31 05:20:54;;;;;;;22.92;6.35;;;15.00;99.90;;;;;;5060255;28;20234;-76
2021/07/31 05:23:19;;;;;;;27.60;6.85;;;15.00;99.90;;;;;;5061666;28;20048;-75
2021/07/31 05:25:45;;;;;;;21.20;5.85;;;15.00;99.90;;;;;;5059563;28;20068;-75
2021/07/31 05:28:12;;;;;;;31.50;6.47;;;15.00;99.90;;;;;;5058725;28;20055;-76
2021/07/31 05:30:39;;;;;;;25.45;6.80;;;15.00;99.90;;;;;;5060662;28;20057;-75
2021/07/31 05:33:05;;;;;;;20.10;5.83;;;15.10;99.90;;;;;;5056834;28;20891;-75
2021/07/31 05:35:31;;;;;;;25.40;6.43;;;15.10;99.90;;;;;;5062563;28;20292;-75
2021/07/31 05:37:57;;;;;;;28.00;5.15;;;15.10;99.90;;;;;;5056057;28;20040;-76
2021/07/31 05:40:23;;;;;;;24.45;5.85;;;15.10;99.90;;;;;;5062828;28;20057;-75
2021/07/31 05:42:49;;;;;;;31.92;6.70;;;15.20;99.90;;;;;;5055864;28;20113;-76
2021/07/31 05:45:14;;;;;;;22.73;5.80;;;15.30;99.90;;;;;;5061872;28;20075;-76
2021/07/31 05:47:41;;;;;;;28.52;6.53;;;15.30;99.90;;;;;;5053677;28;20489;-76
2021/07/31 05:50:08;;;;;;;19.85;4.88;;;15.30;99.90;;;;;;5060351;28;20051;-75
2021/07/31 05:52:38;;;;;;;32.50;6.00;;;15.40;99.90;;;;;;5053355;28;20045;-76
2021/07/31 05:55:05;;;;;;;29.60;5.43;;;15.40;99.90;;;;;;5058801;28;20048;-77
2021/07/31 05:57:31;;;;;;;;;;;15.40;99.90;;;;;;5065261;28;20041;-76
2021/07/31 05:59:57;;;;;;;46.83;7.15;;;15.60;99.90;;;;;;5059222;28;19928;-75
2021/07/31 06:02:23;;;;;;;28.80;5.57;;;15.70;99.90;;;;;;5050488;28;20057;-76
2021/07/31 06:04:49;;;;;;;20.42;5.15;;;15.80;99.90;;;;;;5058284;28;20101;-75
2021/07/31 06:07:14;;;;;;;28.65;5.07;;;15.80;99.90;;;;;;5064074;28;20044;-75
2021/07/31 06:09:41;;;;;;;28.02;4.95;;;15.90;99.90;;;;;;5057645;28;20041;-76
2021/07/31 06:12:09;;;;;;;31.70;6.25;;;15.80;99.90;;;;;;5064040;28;20515;-75
2021/07/31 06:14:36;;;;;;;;;;;15.80;99.90;;;;;;5053135;28;20041;-75
2021/07/31 06:17:02;;;;;;;24.60;6.05;;;15.70;99.90;;;;;;5058658;28;20230;-76
2021/07/31 06:19:29;;;;;;;22.15;4.93;;;15.70;99.90;;;;;;5052598;28;20101;-75
2021/07/31 06:21:56;;;;;;;21.83;5.47;;;15.80;99.90;;;;;;5057483;28;20097;-75
2021/07/31 06:24:22;;;;;;;22.88;5.22;;;15.90;99.90;;;;;;5054285;28;20045;-76
2021/07/31 06:26:48;;;;;;;22.98;4.60;;;15.90;99.90;;;;;;5051204;28;20052;-76
2021/07/31 06:29:14;;;;;;;27.40;6.35;;;15.80;99.90;;;;;;5064114;28;20049;-75
2021/07/31 06:31:40;;;;;;;28.30;6.68;;;15.80;99.90;;;;;;5056484;28;20128;-75
2021/07/31 06:34:05;;;;;;;26.17;5.15;;;15.90;99.90;;;;;;5063252;28;20040;-74
2021/07/31 06:36:31;;;;;;;25.83;5.28;;;15.90;99.90;;;;;;5055714;28;20045;-75
2021/07/31 06:38:57;;;;;;;29.67;4.93;;;15.90;99.90;;;;;;5062510;28;20045;-75
2021/07/31 06:41:22;;;;;;;15.52;4.20;;;15.90;99.90;;;;;;5057729;28;20101;-75
2021/07/31 06:43:48;;;;;;;21.27;5.80;;;15.80;99.90;;;;;;5059687;28;20048;-75
2021/07/31 06:46:16;;;;;;;21.45;4.70;;;15.80;99.90;;;;;;5058738;28;20811;-75
2021/07/31 06:48:43;;;;;;;21.65;4.68;;;15.70;99.90;;;;;;5057654;28;20045;-75
2021/07/31 06:51:09;;;;;;;18.40;4.50;;;15.80;99.90;;;;;;5059012;28;20041;-75
2021/07/31 06:53:36;;;;;;;19.17;4.28;;;15.80;99.90;;;;;;5054602;28;20041;-74
2021/07/31 06:56:03;;;;;;;17.73;3.78;;;15.90;99.90;;;;;;5061772;28;20040;-76
2021/07/31 06:58:29;;;;;;;16.80;4.53;;;16.20;99.90;;;;;;5061073;28;20045;-75
2021/07/31 07:00:55;;;;;;;17.15;3.53;;;16.50;99.90;;;;;;5060100;28;20072;-75
2021/07/31 07:03:21;;;;;;;21.65;4.32;;;16.70;99.90;;;;;;5052724;28;20048;-76
2021/07/31 07:05:48;;;;;;;16.00;3.17;;;16.70;99.90;;;;;;5058728;28;20044;-75
2021/07/31 07:08:13;;;;;;;14.02;3.08;;;16.70;99.90;;;;;;5051903;28;20041;-76
2021/07/31 07:10:39;;;;;;;14.63;3.70;;;16.50;99.90;;;;;;5058343;28;20051;-75
2021/07/31 07:13:06;;;;;;;17.30;4.10;;;16.60;99.90;;;;;;5061566;28;20055;-75
2021/07/31 07:15:31;;;;;;;11.90;3.30;;;16.60;99.90;;;;;;5053469;28;20048;-74
2021/07/31 07:17:59;;;;;;;18.50;4.30;;;16.60;99.90;;;;;;5059461;28;20072;-75
2021/07/31 07:20:25;;;;;;;17.00;3.45;;;16.60;99.90;;;;;;5051877;28;20080;-75
2021/07/31 07:22:52;;;;;;;14.48;3.03;;;16.50;99.90;;;;;;5058762;28;20041;-74
2021/07/31 07:25:18;;;;;;;17.23;4.40;;;16.50;99.90;;;;;;5048165;28;20176;-74
2021/07/31 07:27:44;;;;;;;17.92;4.00;;;16.50;99.90;;;;;;5055165;28;20120;-75
2021/07/31 07:30:10;;;;;;;16.23;3.50;;;16.60;99.90;;;;;;5049986;28;20052;-75
2021/07/31 07:32:36;;;;;;;20.77;3.25;;;16.70;99.90;;;;;;5056936;28;20128;-75
2021/07/31 07:35:03;;;;;;;11.85;2.95;;;17.10;99.90;;;;;;5050029;28;20096;-75
2021/07/31 07:37:29;;;;;;;8.05;2.35;;;17.50;99.90;;;;;;5056152;28;20037;-76
2021/07/31 07:39:55;;;;;;;16.92;3.13;;;17.60;99.90;;;;;;5063116;28;20048;-75
2021/07/31 07:42:20;;;;;;;14.55;2.70;;;17.60;99.90;;;;;;5055442;28;20044;-75
2021/07/31 07:44:46;;;;;;;12.20;3.05;;;17.40;99.90;;;;;;5061985;28;20429;-76
2021/07/31 07:47:12;;;;;;;16.88;3.50;;;17.20;99.90;;;;;;5054558;28;20041;-75
2021/07/31 07:49:38;;;;;;;14.35;2.97;;;16.90;99.90;;;;;;5061603;28;20072;-75
2021/07/31 07:52:04;;;;;;;14.82;3.53;;;16.70;99.90;;;;;;5053829;28;20053;-75
2021/07/31 07:54:30;;;;;;;16.35;3.97;;;16.70;99.90;;;;;;5060854;28;20127;-75
2021/07/31 07:56:57;;;;;;;21.08;3.78;;;16.60;99.90;;;;;;5060933;28;20056;-75
2021/07/31 07:59:23;;;;;;;10.25;2.50;;;16.50;99.90;;;;;;5059949;28;20036;-73
2021/07/31 08:01:49;;;;;;;20.98;3.70;;;16.30;99.90;;;;;;5054274;28;20046;-74
2021/07/31 08:04:15;;;;;;;15.07;3.00;;;16.30;99.90;;;;;;5057397;28;20049;-74
2021/07/31 08:06:41;;;;;;;8.57;2.63;;;16.30;99.90;;;;;;5053208;28;20041;-75
2021/07/31 08:09:06;;;;;;;7.55;2.40;;;16.30;99.90;;;;;;5054668;28;20060;-75
2021/07/31 08:11:32;;;;;;;7.07;2.63;;;16.30;99.90;;;;;;5060922;28;20041;-75
2021/07/31 08:13:59;;;;;;;11.88;2.65;;;16.20;99.90;;;;;;5057763;28;20052;-76
2021/07/31 08:16:25;;;;;;;8.10;2.60;;;16.20;99.90;;;;;;5056449;28;20050;-75
2021/07/31 08:18:51;;;;;;;8.18;1.90;;;16.20;99.90;;;;;;5059301;28;20069;-76
2021/07/31 08:21:17;;;;;;;7.07;1.80;;;16.40;99.90;;;;;;5053653;28;20042;-75
2021/07/31 08:23:43;;;;;;;7.03;1.52;;;16.50;99.90;;;;;;5060312;28;20534;-76
2021/07/31 08:26:12;;;;;;;10.82;2.83;;;16.50;99.90;;;;;;5045958;28;20045;-76
2021/07/31 08:28:40;;;;;;;6.28;1.95;;;16.80;99.90;;;;;;5059466;28;20077;-75
2021/07/31 08:31:10;;;;;;;6.97;1.70;;;17.10;99.90;;;;;;5051901;28;20045;-75
2021/07/31 08:33:36;;;;;;;5.78;2.30;;;17.40;99.90;;;;;;5058929;28;20064;-76
2021/07/31 08:36:04;;;;;;;7.15;2.05;;;17.60;99.90;;;;;;5057609;28;20049;-76
2021/07/31 08:38:29;;;;;;;7.70;1.52;;;17.80;99.90;;;;;;5058379;28;20049;-75
2021/07/31 08:40:55;;;;;;;6.72;1.88;;;17.90;99.90;;;;;;5054842;28;20049;-76
2021/07/31 08:43:21;;;;;;;8.98;2.22;;;17.80;99.90;;;;;;5061621;28;20048;-75
2021/07/31 08:45:47;;;;;;;11.75;2.78;;;17.60;99.90;;;;;;5052386;28;20144;-74
2021/07/31 08:48:15;;;;;;;11.68;2.10;;;17.60;99.90;;;;;;5059943;28;20109;-76
2021/07/31 08:50:42;;;;;;;7.20;1.83;;;17.50;99.90;;;;;;5052348;28;20041;-76
2021/07/31 08:53:08;;;;;;;6.13;1.38;;;17.40;99.90;;;;;;5059342;28;20160;-74
2021/07/31 08:55:34;;;;;;;7.15;1.73;;;17.40;99.90;;;;;;5064478;28;20101;-73
2021/07/31 08:58:00;;;;;;;5.25;1.40;;;16.80;99.90;;;;;;5067212;28;20475;-73
2021/07/31 09:00:26;;;;;;;4.68;1.40;;;16.50;99.90;;;;;;5062454;28;20073;-73
2021/07/31 09:02:52;;;;;;;5.10;1.70;;;16.50;99.90;;;;;;5064063;28;20099;-73
2021/07/31 09:05:30;;;;;;;9.23;1.85;;;16.40;99.90;;;;;;5064006;28;20049;-73
2021/07/31 09:08:03;;;;;;;9.77;1.98;;;16.50;99.90;;;;;;5056980;28;20045;-73
2021/07/31 09:10:32;;;;;;;4.95;1.50;;;16.60;99.90;;;;;;5063630;28;20040;-74
2021/07/31 09:13:01;;;;;;;11.52;2.50;;;16.70;99.90;;;;;;5051879;28;20052;-73
2021/07/31 09:15:43;;;;;;;7.75;2.13;;;16.80;99.90;;;;;;5058590;28;20096;-74
2021/07/31 09:18:28;;;;;;;8.13;1.70;;;16.90;99.90;;;;;;5065330;28;20045;-73
2021/07/31 09:21:06;;;;;;;7.50;2.22;;;16.90;99.90;;;;;;5057057;28;20048;-74
2021/07/31 09:23:41;;;;;;;11.00;2.40;;;17.00;99.90;;;;;;5066109;28;20040;-73
2021/07/31 09:26:07;;;;;;;10.15;1.88;;;17.20;99.90;;;;;;5057389;28;20125;-75
2021/07/31 09:28:38;;;;;;;8.15;1.70;;;17.40;99.90;;;;;;5064785;28;20048;-75
2021/07/31 09:31:04;;;;;;;6.80;2.17;;;17.50;99.90;;;;;;5065457;28;20397;-74
2021/07/31 09:33:29;;;;;;;9.43;2.67;;;17.60;99.90;;;;;;5063176;28;20083;-75
2021/07/31 09:36:03;;;;;;;8.65;2.40;;;17.50;99.90;;;;;;5054920;28;20166;-74
2021/07/31 09:38:46;;;;;;;5.20;1.92;;;17.50;99.90;;;;;;5062287;28;20041;-74
2021/07/31 09:41:20;;;;;;;8.82;2.17;;;17.70;99.90;;;;;;5055358;28;20045;-73
2021/07/31 09:44:06;;;;;;;15.50;2.00;;;17.80;99.90;;;;;;5062319;28;20045;-75
2021/07/31 09:46:41;;;;;;;8.13;2.65;;;17.90;99.90;;;;;;5054524;28;20117;-74
2021/07/31 09:49:09;;;;;;;4.57;1.35;;;17.80;99.90;;;;;;5061319;28;20048;-74
2021/07/31 09:51:40;;;;;;;10.32;2.42;;;17.90;99.90;;;;;;5052483;28;20045;-74
2021/07/31 09:54:10;;;;;;;15.27;2.72;;;17.90;99.90;;;;;;5060318;28;20326;-73
2021/07/31 09:56:50;;;;;;;9.35;2.03;;;18.00;99.90;;;;;;5052823;28;20068;-74
2021/07/31 09:59:17;;;;;;;8.85;2.10;;;18.20;99.90;;;;;;5059832;28;20037;-75
2021/07/31 10:01:52;;;;;;;10.00;2.55;;;18.30;99.90;;;;;;5052143;28;20042;-75
2021/07/31 10:04:18;;;;;;;8.40;1.98;;;18.40;99.90;;;;;;5063393;28;20037;-76
2021/07/31 10:06:44;;;;;;;7.28;2.38;;;18.50;99.90;;;;;;5060571;28;20055;-75
2021/07/31 10:09:11;;;;;;;11.70;2.90;;;18.50;99.90;;;;;;5060369;28;20068;-75
2021/07/31 10:11:39;;;;;;;12.95;2.83;;;18.40;99.90;;;;;;5061612;28;20095;-75
2021/07/31 10:14:08;;;;;;;10.32;2.22;;;18.60;99.90;;;;;;5053701;28;20045;-75
2021/07/31 10:16:36;;;;;;;11.75;1.95;;;18.70;99.90;;;;;;5059468;28;20053;-75
2021/07/31 10:19:09;;;;;;;14.02;2.65;;;18.80;99.90;;;;;;5045881;28;20122;-75
2021/07/31 10:21:58;;;;;;;12.02;3.05;;;18.80;99.90;;;;;;5058749;28;20053;-75
2021/07/31 10:24:25;;;;;;;14.10;2.85;;;18.70;99.90;;;;;;5051729;28;20072;-75
2021/07/31 10:27:16;;;;;;;9.77;2.20;;;18.80;99.90;;;;;;5061852;28;20048;-75
2021/07/31 10:29:43;;;;;;;8.90;2.83;;;18.80;99.90;;;;;;5057131;28;20124;-75
2021/07/31 10:32:21;;;;;;;10.32;2.30;;;18.90;99.90;;;;;;5063015;28;20056;-75
2021/07/31 10:34:53;;;;;;;10.98;2.20;;;18.80;99.90;;;;;;5056835;28;20061;-75
2021/07/31 10:37:31;;;;;;;11.25;2.63;;;18.90;99.90;;;;;;5050908;28;20100;-76
2021/07/31 10:39:57;;;;;;;;;;;19.10;99.90;;;;;;5056019;28;20065;-76
2021/07/31 10:42:23;;;;;;;8.32;1.77;;;19.40;99.90;;;;;;5050779;28;19921;-76
2021/07/31 10:45:17;;;;;;;5.78;1.92;;;19.50;99.90;;;;;;5056993;28;20050;-76
2021/07/31 10:47:47;;;;;;;7.93;2.17;;;19.70;99.90;;;;;;5052630;28;20056;-76
2021/07/31 10:50:22;;;;;;;9.75;1.95;;;19.70;99.90;;;;;;5053659;28;20133;-76
2021/07/31 10:52:56;;;;;;;7.80;2.40;;;19.80;99.90;;;;;;5063325;28;20047;-76
2021/07/31 10:55:46;;;;;;;14.25;2.78;;;19.80;99.90;;;;;;5052845;28;20052;-76
2021/07/31 10:58:16;;;;;;;6.88;2.00;;;19.80;99.90;;;;;;5051957;28;20056;-76
2021/07/31 11:00:45;;;;;;;13.18;3.08;;;19.80;99.90;;;;;;5052259;28;20050;-75
2021/07/31 11:03:23;;;;;;;10.10;2.08;;;19.90;99.90;;;;;;5059038;28;20045;-76
2021/07/31 11:05:49;;;;;;;10.73;2.40;;;19.90;99.90;;;;;;5048118;28;20029;-76
2021/07/31 11:08:19;;;;;;;7.07;2.15;;;20.00;99.90;;;;;;5058647;28;20051;-76
2021/07/31 11:10:49;;;;;;;6.20;2.30;;;20.00;99.90;;;;;;5050591;28;20049;-76
2021/07/31 11:13:18;;;;;;;10.02;2.50;;;20.00;99.90;;;;;;5053520;28;20071;-76
2021/07/31 11:15:55;;;;;;;6.30;2.45;;;20.10;99.90;;;;;;5060118;28;20127;-75
2021/07/31 11:18:25;;;;;;;10.18;2.60;;;19.90;99.90;;;;;;5052787;28;20044;-75
2021/07/31 11:20:51;;;;;;;5.03;2.17;;;19.90;99.90;;;;;;5057962;28;20049;-74
2021/07/31 11:23:19;;;;;;;5.57;1.75;;;19.70;99.90;;;;;;5052188;28;20101;-75
2021/07/31 11:25:46;;;;;;;5.68;2.28;;;19.90;99.90;;;;;;5058501;28;20129;-74
2021/07/31 11:28:12;;;;;;;5.07;1.95;;;20.10;99.90;;;;;;5050830;28;20051;-74
2021/07/31 11:30:41;;;;;;;4.78;2.33;;;20.30;99.90;;;;;;5057549;28;20042;-74
2021/07/31 11:33:25;;;;;;;4.78;2.22;;;20.30;99.90;;;;;;5050361;28;20103;-75
2021/07/31 11:35:56;;;;;;;6.35;3.40;;;20.50;99.90;;;;;;5051854;28;20464;-75
2021/07/31 11:38:33;;;;;;;7.65;2.40;;;20.80;99.90;;;;;;5049954;28;20049;-74
2021/07/31 11:41:03;;;;;;;6.15;2.30;;;20.90;99.90;;;;;;5055829;28;20098;-74
2021/07/31 11:43:49;;;;;;;9.60;2.03;;;21.10;99.90;;;;;;5062970;28;20114;-74
2021/07/31 11:46:28;;;;;;;7.35;2.80;;;20.70;99.90;;;;;;5055286;28;20044;-74
2021/07/31 11:48:58;;;;;;;6.65;2.35;;;20.50;99.90;;;;;;5062248;28;20048;-74
2021/07/31 11:51:24;;;;;;;5.28;1.90;;;20.80;99.90;;;;;;5054185;28;20071;-75
2021/07/31 11:53:52;;;;;;;3.85;1.88;;;21.10;99.90;;;;;;5061183;28;20060;-74
2021/07/31 11:56:20;;;;;;;6.55;1.70;;;21.10;99.90;;;;;;5053704;28;20041;-74
2021/07/31 11:58:48;;;;;;;4.00;1.73;;;21.10;99.90;;;;;;5060540;28;20052;-75
2021/07/31 12:01:15;;;;;;;3.78;1.70;;;20.80;99.90;;;;;;5052932;28;20067;-74
2021/07/31 12:03:48;;;;;;;3.23;1.13;;;20.90;99.90;;;;;;5060034;28;20057;-73
2021/07/31 12:06:32;;;;;;;6.15;1.67;;;21.50;99.90;;;;;;5049546;28;20326;-74
2021/07/31 12:09:02;;;;;;;9.35;2.05;;;21.50;99.90;;;;;;5058954;28;20042;-74
2021/07/31 12:11:38;;;;;;;4.13;1.67;;;21.00;99.90;;;;;;5051704;28;20041;-74
2021/07/31 12:14:37;;;;;;;5.28;1.85;;;20.80;99.90;;;;;;5055702;28;20059;-74
2021/07/31 12:17:20;;;;;;;6.43;2.58;;;20.60;99.90;;;;;;5051583;28;20053;-75
2021/07/31 12:19:48;;;;;;;7.50;2.10;;;20.80;99.90;;;;;;5057679;28;20146;-74
2021/07/31 12:22:25;;;;;;;4.50;1.70;;;20.70;99.90;;;;;;5062425;28;20045;-74
2021/07/31 12:25:13;;;;;;;5.35;2.05;;;21.00;99.90;;;;;;5058913;28;20049;-73
2021/07/31 12:28:05;;;;;;;5.80;1.85;;;21.70;99.90;;;;;;5074700;28;20456;-73
2021/07/31 12:30:39;;;;;;;6.30;2.10;;;22.10;99.90;;;;;;5053571;28;20370;-73
2021/07/31 12:33:05;;;;;;;4.63;1.77;;;22.00;99.90;;;;;;5055350;28;20109;-73
2021/07/31 12:35:34;;;;;;;5.13;1.75;;;21.50;99.90;;;;;;5060981;28;20072;-73
2021/07/31 12:38:01;;;;;;;11.93;2.85;;;20.60;99.90;;;;;;5056540;28;20049;-75
2021/07/31 12:40:28;;;;;;;5.28;2.53;;;19.40;99.90;;;;;;5058854;28;20140;-74
2021/07/31 12:42:54;;;;;;;4.63;2.58;;;18.90;99.90;;;;;;5059794;28;20045;-75
2021/07/31 12:45:19;;;;;;;3.28;2.15;;;18.60;99.90;;;;;;5057896;28;20047;-75